Smithton, PA

10:28 AM EDT on May 25, 2015 (GMT -0400)
Arnold Palmer Regional | | Change Station
CLOSE
Current Station
Airport
Location: Latrobe,
Elevation: 1184 ft
Nearby Weather Stations

Elev 1184 ft 40.28 °N, 79.40 °W | Updated 38 minutes ago

Clear
Clear
75 °F
Feels Like 75 °F
N
9
Wind Variable Wind from WSW
Gusts 18 mph

Today
High -- | Low -- °F
--% Chance of Precip.
Yesterday
High -- | Low -- °F
Precip. -- in
5:55 AM 8:36 PM
Waxing Crescent, 49% visible
Pressure 30.25 in
Visibility 20.0 miles
Clouds Scattered Clouds 20000 ft
Dew Point 55 °F
Humidity 50%
Rainfall 0.00 in
Snow Depth Not available.
UV 5 out of 12
Pollen 10.00 out of 12
Air Quality Not available.
Flu Activity Sporadic
METAR KLBE 251350Z 24008G16KT 20SM SCT200 24/13 A3025

More Conditions Fewer Conditions

Pressure 30.25 in
Visibility 20.0 miles
Clouds Scattered Clouds 20000 ft
Dew Point 55 °F
Humidity 50%
Rainfall 0.00 in
Snow Depth Not available.
UV 5 out of 12
Pollen 10.00 out of 12
Air Quality Not available.
Flu Activity Sporadic
METAR KLBE 251350Z 24008G16KT 20SM SCT200 24/13 A3025

More Conditions Fewer Conditions

10-Day Weather Forecast

Almanac

Astronomy

May. 25, 2015 Rise Set
Actual Time
Civil Twilight
Nautical Twilight
Astronomical Twilight
Moon
Length of Visible Light
Length of Day
Tomorrow will be .
, % of the Moon is Illuminated

Today's Extremes

State Highs State Lows

Community

WunderPhotos

Upload Photos

1,824,025 photos uploaded!

WunderBlogs® & News

Nearby

Air Quality

  Air Quality AQ Index Pollutant
Not available.

Snow Depth

Station Depth Elevation

Earthquake Activity

City Distance Mag. Time & Date
Minimum magnitude displayed is 2.5.

Coastal Water Temperatures

Place Temperature

Stations

Nearby Weather Stations

Station Location Temp. Windchill Dew Point Humidity Wind Precip. Elev Updated Type